createdAt,value
2023-03-08T00:02:09.805Z,75.92
2023-03-08T00:04:41.601Z,75.57
2023-03-08T00:07:13.354Z,75.52
2023-03-08T00:09:45.374Z,75.56
2023-03-08T00:12:19.236Z,75.40
2023-03-08T00:14:51.309Z,75.49
2023-03-08T00:17:24.351Z,75.35
2023-03-08T00:19:56.185Z,75.52
2023-03-08T00:22:27.993Z,75.76
2023-03-08T00:24:59.618Z,75.96
2023-03-08T00:27:31.446Z,76.21
2023-03-08T00:30:03.202Z,76.07
2023-03-08T00:32:34.868Z,76.38
2023-03-08T00:35:07.338Z,76.29
2023-03-08T00:37:38.966Z,76.99
2023-03-08T00:40:12.824Z,76.61
2023-03-08T00:42:44.678Z,76.63
2023-03-08T00:45:16.538Z,76.72
2023-03-08T00:47:48.149Z,76.85
2023-03-08T00:50:20.337Z,76.95
2023-03-08T00:52:52.085Z,77.26
2023-03-08T00:55:23.813Z,77.28
2023-03-08T00:57:55.654Z,77.11
2023-03-08T01:00:27.642Z,77.19
2023-03-08T01:02:59.607Z,77.36
2023-03-08T01:05:32.571Z,77.01
2023-03-08T01:08:05.125Z,76.98
2023-03-08T01:10:37.055Z,77.26
2023-03-08T01:13:09.948Z,77.41
2023-03-08T01:15:41.748Z,77.45
2023-03-08T01:18:13.691Z,77.66
2023-03-08T01:20:45.493Z,77.66
2023-03-08T01:23:18.247Z,77.72
2023-03-08T01:25:50.073Z,77.85
2023-03-08T01:28:22.120Z,77.76
2023-03-08T01:30:53.779Z,77.57
2023-03-08T01:33:25.464Z,77.86
2023-03-08T01:35:57.190Z,78.00
2023-03-08T01:38:28.898Z,78.26
2023-03-08T01:41:01.548Z,78.05
2023-03-08T01:43:35.496Z,78.15
2023-03-08T01:46:17.445Z,77.70
2023-03-08T01:48:54.693Z,78.26
2023-03-08T01:51:33.182Z,78.01
2023-03-08T01:54:08.134Z,78.42
2023-03-08T01:56:40.974Z,78.16
2023-03-08T01:59:13.458Z,78.28
2023-03-08T02:01:45.598Z,78.29
2023-03-08T02:04:17.854Z,78.29
2023-03-08T02:06:49.931Z,78.07
2023-03-08T02:09:25.610Z,78.21
2023-03-08T02:12:00.474Z,77.83
2023-03-08T02:14:30.945Z,77.92
2023-03-08T02:17:03.086Z,77.72
2023-03-08T02:19:40.544Z,77.87
2023-03-08T02:22:14.395Z,77.85
2023-03-08T02:27:42.944Z,78.23
2023-03-08T02:30:18.154Z,78.20
2023-03-08T02:32:49.897Z,78.27
2023-03-08T02:35:22.156Z,78.37
2023-03-08T02:37:56.938Z,78.44
2023-03-08T02:40:29.488Z,78.57
2023-03-08T02:43:01.291Z,78.49
2023-03-08T02:45:34.101Z,78.59
2023-03-08T02:48:07.959Z,78.56
2023-03-08T02:50:40.355Z,78.78
2023-03-08T02:53:12.855Z,78.78
2023-03-08T02:55:44.666Z,79.06
2023-03-08T02:58:17.647Z,78.90
2023-03-08T03:00:49.567Z,78.99
2023-03-08T03:03:21.440Z,79.17
2023-03-08T03:05:55.819Z,79.17
2023-03-08T03:08:33.995Z,79.06
2023-03-08T03:11:13.977Z,79.05
2023-03-08T03:13:45.732Z,79.30
2023-03-08T03:16:19.166Z,79.34
2023-03-08T03:18:51.146Z,79.37
2023-03-08T03:21:23.701Z,79.71
2023-03-08T03:23:56.633Z,79.57
2023-03-08T03:26:34.200Z,79.69
2023-03-08T03:29:06.120Z,79.77
2023-03-08T03:31:39.948Z,79.49
2023-03-08T03:34:11.710Z,79.53
2023-03-08T03:36:43.649Z,79.64
2023-03-08T03:39:15.489Z,79.63
2023-03-08T03:41:47.606Z,79.60
2023-03-08T03:44:19.926Z,79.70
2023-03-08T03:46:53.180Z,79.83
2023-03-08T03:49:28.584Z,79.71
2023-03-08T03:52:00.532Z,79.79
2023-03-08T03:54:39.185Z,79.70
2023-03-08T03:57:11.327Z,79.88
2023-03-08T03:59:45.771Z,79.86
2023-03-08T04:02:19.439Z,79.84
2023-03-08T04:04:58.833Z,79.83
2023-03-08T04:07:33.833Z,79.85
2023-03-08T04:10:09.029Z,79.82
2023-03-08T04:12:41.451Z,79.78
2023-03-08T04:15:15.949Z,79.86
2023-03-08T04:17:47.746Z,79.94
2023-03-08T04:20:22.278Z,79.77
2023-03-08T04:22:59.201Z,79.96
2023-03-08T04:25:36.063Z,80.00
2023-03-08T04:28:08.906Z,80.08
2023-03-08T04:30:41.039Z,80.22
2023-03-08T04:33:13.468Z,80.32
2023-03-08T04:35:51.996Z,80.29
2023-03-08T04:38:25.313Z,80.26
2023-03-08T04:41:10.980Z,80.28
2023-03-08T04:44:03.375Z,80.45
2023-03-08T04:46:50.631Z,80.47
2023-03-08T04:49:28.421Z,80.72
2023-03-08T04:52:04.722Z,80.72
2023-03-08T04:54:38.496Z,80.65
2023-03-08T04:57:24.878Z,80.74
2023-03-08T04:59:58.738Z,80.74
2023-03-08T05:02:33.387Z,80.80
2023-03-08T05:05:05.935Z,80.75
2023-03-08T05:07:37.891Z,80.73
2023-03-08T05:10:11.225Z,80.64
2023-03-08T05:12:43.022Z,80.67
2023-03-08T05:15:15.715Z,80.54
2023-03-08T05:17:47.504Z,80.44
2023-03-08T05:20:21.587Z,80.46
2023-03-08T05:22:58.875Z,80.44
2023-03-08T05:25:37.699Z,80.51
2023-03-08T05:28:09.440Z,80.32
2023-03-08T05:30:42.412Z,80.38
2023-03-08T05:33:14.335Z,80.37
2023-03-08T05:35:55.530Z,80.46
2023-03-08T05:38:28.540Z,80.39
2023-03-08T05:41:05.413Z,80.46
2023-03-08T05:43:37.510Z,80.46
2023-03-08T05:46:12.220Z,80.38
2023-03-08T05:48:44.461Z,80.36
2023-03-08T05:51:18.918Z,80.24
2023-03-08T05:53:50.850Z,79.95
2023-03-08T05:56:26.356Z,79.91
2023-03-08T05:59:07.194Z,79.47
2023-03-08T06:01:39.062Z,79.20
2023-03-08T06:04:44.584Z,79.18
2023-03-08T06:07:18.340Z,79.10
2023-03-08T06:09:55.615Z,78.74
2023-03-08T06:12:28.517Z,78.48
2023-03-08T06:15:01.915Z,78.48
2023-03-08T06:17:35.980Z,78.35
2023-03-08T06:20:09.135Z,78.43
2023-03-08T06:22:42.303Z,78.37
2023-03-08T06:25:14.784Z,78.07
2023-03-08T06:27:47.229Z,77.95
2023-03-08T06:30:26.770Z,77.91
2023-03-08T06:32:58.990Z,77.81
2023-03-08T06:35:31.110Z,77.81
2023-03-08T06:38:06.160Z,77.47
2023-03-08T06:40:42.011Z,77.42
2023-03-08T06:43:12.271Z,77.05
2023-03-08T06:45:46.255Z,76.58
2023-03-08T06:48:18.409Z,76.36
2023-03-08T06:50:50.458Z,76.51
2023-03-08T06:53:22.468Z,76.30
2023-03-08T06:56:03.083Z,76.32
2023-03-08T06:58:36.897Z,76.01
2023-03-08T07:01:09.881Z,75.94
2023-03-08T07:03:41.912Z,75.66
2023-03-08T07:06:13.711Z,75.45
2023-03-08T07:08:45.422Z,74.45
2023-03-08T07:11:17.207Z,74.22
2023-03-08T07:13:49.055Z,73.96
2023-03-08T07:16:20.870Z,73.26
2023-03-08T07:18:52.646Z,71.75
2023-03-08T07:21:24.797Z,71.32
2023-03-08T07:23:56.551Z,69.98
2023-03-08T07:26:28.271Z,68.97
2023-03-08T07:29:00.100Z,68.38
2023-03-08T07:31:32.647Z,67.28
2023-03-08T07:34:04.432Z,65.70
2023-03-08T07:36:36.563Z,64.25
2023-03-08T07:39:08.325Z,63.56
2023-03-08T07:41:40.450Z,62.84
2023-03-08T07:44:12.163Z,61.83
2023-03-08T07:46:43.876Z,60.60
2023-03-08T07:49:15.797Z,60.13
2023-03-08T07:51:47.514Z,59.12
2023-03-08T07:54:21.559Z,60.26
2023-03-08T07:56:53.995Z,58.86
2023-03-08T07:59:25.902Z,60.43
2023-03-08T08:01:57.666Z,60.97
2023-03-08T08:04:29.510Z,61.32
2023-03-08T08:07:01.925Z,60.89
2023-03-08T08:09:34.825Z,61.34
2023-03-08T08:12:07.271Z,61.61
2023-03-08T08:14:39.013Z,61.73
2023-03-08T08:17:10.763Z,61.14
2023-03-08T08:19:42.505Z,61.55
2023-03-08T08:22:14.494Z,62.24
2023-03-08T08:24:46.373Z,61.01
2023-03-08T08:27:18.061Z,60.67
2023-03-08T08:29:50.950Z,60.99
2023-03-08T08:32:22.673Z,60.51
2023-03-08T08:34:54.385Z,60.26
2023-03-08T08:37:26.168Z,60.58
2023-03-08T08:39:57.905Z,60.07
2023-03-08T08:42:29.815Z,60.83
2023-03-08T08:45:01.579Z,61.33
2023-03-08T08:47:33.423Z,60.67
2023-03-08T08:50:05.486Z,60.29
2023-03-08T08:52:37.219Z,59.62
2023-03-08T08:55:10.087Z,59.09
2023-03-08T08:57:41.790Z,59.46
2023-03-08T09:00:16.456Z,59.33
2023-03-08T09:02:46.710Z,58.62
2023-03-08T09:05:18.729Z,57.48
2023-03-08T09:07:50.707Z,58.05
2023-03-08T09:10:22.790Z,58.63
2023-03-08T09:12:54.572Z,57.94
2023-03-08T09:15:26.333Z,57.26
2023-03-08T09:17:58.035Z,58.05
2023-03-08T09:20:29.715Z,59.20
2023-03-08T09:23:01.423Z,58.83
2023-03-08T09:25:33.286Z,58.21
2023-03-08T09:28:05.076Z,57.02
2023-03-08T09:30:36.850Z,56.93
2023-03-08T09:33:08.645Z,55.82
2023-03-08T09:35:40.600Z,56.52
2023-03-08T09:38:12.434Z,56.07
2023-03-08T09:40:58.230Z,55.12
2023-03-08T09:43:39.493Z,55.60
2023-03-08T09:46:16.356Z,56.06
2023-03-08T09:48:51.575Z,55.79
2023-03-08T09:51:23.788Z,55.44
2023-03-08T09:54:00.396Z,55.32
2023-03-08T09:56:38.147Z,55.33
2023-03-08T09:59:15.064Z,55.63
2023-03-08T10:01:52.361Z,55.43
2023-03-08T10:04:41.953Z,55.15
2023-03-08T10:07:20.742Z,55.52
2023-03-08T10:10:00.515Z,54.67
2023-03-08T10:12:36.869Z,53.64
2023-03-08T10:15:12.733Z,53.31
2023-03-08T10:17:49.097Z,54.03
2023-03-08T10:20:23.338Z,54.68
2023-03-08T10:23:01.027Z,54.30
2023-03-08T10:25:34.143Z,54.07
2023-03-08T10:28:11.258Z,53.46
2023-03-08T10:30:49.666Z,54.30
2023-03-08T10:33:24.333Z,54.57
2023-03-08T10:36:02.234Z,54.54
2023-03-08T10:38:35.893Z,53.63
2023-03-08T10:41:13.545Z,51.61
2023-03-08T10:43:49.377Z,52.45
2023-03-08T10:46:22.597Z,52.54
2023-03-08T10:48:54.731Z,51.86
2023-03-08T10:51:28.545Z,51.56
2023-03-08T10:54:02.838Z,50.33
2023-03-08T10:56:44.801Z,50.33
2023-03-08T10:59:27.638Z,51.17
2023-03-08T11:02:01.658Z,50.46
2023-03-08T11:04:33.704Z,50.95
2023-03-08T11:07:24.188Z,51.53
2023-03-08T11:10:08.179Z,50.79
2023-03-08T11:12:40.433Z,50.25
2023-03-08T11:15:17.746Z,50.47
2023-03-08T11:17:56.760Z,49.80
2023-03-08T11:20:31.787Z,50.30
2023-03-08T11:23:13.917Z,49.92
2023-03-08T11:25:48.477Z,49.11
2023-03-08T11:28:23.665Z,49.86
2023-03-08T11:31:04.238Z,50.91
2023-03-08T11:34:01.536Z,49.84
2023-03-08T11:36:39.700Z,48.83
2023-03-08T11:39:19.964Z,48.67
2023-03-08T11:41:57.317Z,49.79
2023-03-08T11:44:37.841Z,50.46
2023-03-08T11:47:43.946Z,50.80
2023-03-08T11:50:19.930Z,50.39
2023-03-08T11:53:00.541Z,51.28
2023-03-08T11:55:43.578Z,51.34
2023-03-08T11:58:20.435Z,50.76
2023-03-08T12:00:54.967Z,50.92
2023-03-08T12:03:29.389Z,48.38
2023-03-08T12:06:03.044Z,49.06
2023-03-08T12:08:37.999Z,48.30
2023-03-08T12:11:11.869Z,48.04
2023-03-08T12:13:45.486Z,47.47
2023-03-08T12:16:21.064Z,47.13
2023-03-08T12:18:57.422Z,47.46
2023-03-08T12:21:38.791Z,46.60
2023-03-08T12:24:25.016Z,47.03
2023-03-08T12:27:00.110Z,46.48
2023-03-08T12:29:37.191Z,47.33
2023-03-08T12:32:09.426Z,47.15
2023-03-08T12:34:42.341Z,46.79
2023-03-08T12:37:25.947Z,45.96
2023-03-08T12:40:04.803Z,47.19
2023-03-08T12:42:38.892Z,47.28
2023-03-08T12:45:28.053Z,47.84
2023-03-08T12:48:10.222Z,47.93
2023-03-08T12:50:44.596Z,48.70
2023-03-08T12:53:27.590Z,49.44
2023-03-08T12:56:08.396Z,48.55
2023-03-08T12:58:39.360Z,48.13
2023-03-08T13:01:30.201Z,48.17
2023-03-08T13:04:02.204Z,47.82
2023-03-08T13:06:57.649Z,47.12
2023-03-08T13:09:31.753Z,46.60
2023-03-08T13:12:22.030Z,46.91
2023-03-08T13:15:10.112Z,47.10
2023-03-08T13:17:48.654Z,47.41
2023-03-08T13:20:24.217Z,48.57
2023-03-08T13:23:08.969Z,48.14
2023-03-08T13:25:49.936Z,48.53
2023-03-08T13:28:23.868Z,48.37
2023-03-08T13:30:58.240Z,48.73
2023-03-08T13:33:31.979Z,49.17
2023-03-08T13:36:05.290Z,48.85
2023-03-08T13:38:38.905Z,49.19
2023-03-08T13:41:10.609Z,49.80
2023-03-08T13:43:42.234Z,49.82
2023-03-08T13:46:17.152Z,49.78
2023-03-08T13:48:49.104Z,49.82
2023-03-08T13:51:21.084Z,49.39
2023-03-08T13:53:52.749Z,49.02
2023-03-08T13:56:26.502Z,49.54
2023-03-08T13:58:59.347Z,49.43
2023-03-08T14:01:31.108Z,49.33
2023-03-08T14:04:13.132Z,49.49
2023-03-08T14:06:51.469Z,49.59
2023-03-08T14:09:23.655Z,49.07
2023-03-08T14:12:02.240Z,49.39
2023-03-08T14:14:35.534Z,49.32
2023-03-08T14:17:07.714Z,49.74
2023-03-08T14:19:41.358Z,49.50
2023-03-08T14:22:17.909Z,49.45
2023-03-08T14:24:55.824Z,49.30
2023-03-08T14:27:37.272Z,49.80
2023-03-08T14:30:17.440Z,50.14
2023-03-08T14:33:21.995Z,50.50
2023-03-08T14:35:59.972Z,50.49
2023-03-08T14:38:33.638Z,49.88
2023-03-08T14:41:07.135Z,50.57
2023-03-08T14:43:39.232Z,50.53
2023-03-08T14:46:16.284Z,50.89
2023-03-08T14:49:02.414Z,50.06
2023-03-08T14:51:39.802Z,50.79
2023-03-08T14:54:24.320Z,50.03
2023-03-08T14:56:56.045Z,50.43
2023-03-08T14:59:28.357Z,50.00
2023-03-08T15:02:00.116Z,49.84
2023-03-08T15:04:31.855Z,49.92
2023-03-08T15:07:03.756Z,49.82
2023-03-08T15:09:35.795Z,50.20
2023-03-08T15:12:09.376Z,50.20
2023-03-08T15:14:41.008Z,50.21
2023-03-08T15:17:12.614Z,50.59
2023-03-08T15:19:44.228Z,50.78
2023-03-08T15:22:16.158Z,50.85
2023-03-08T15:24:47.730Z,51.19
2023-03-08T15:27:19.466Z,51.08
2023-03-08T15:29:51.099Z,51.31
2023-03-08T15:32:22.764Z,51.19
2023-03-08T15:34:54.382Z,51.65
2023-03-08T15:37:26.050Z,52.09
2023-03-08T15:39:57.738Z,52.22
2023-03-08T15:42:29.370Z,52.54
2023-03-08T15:45:01.117Z,52.44
2023-03-08T15:47:32.913Z,52.41
2023-03-08T15:50:04.891Z,53.23
2023-03-08T15:52:36.673Z,53.92
2023-03-08T15:55:11.755Z,53.97
2023-03-08T15:57:43.475Z,54.53
2023-03-08T16:00:18.062Z,54.67
2023-03-08T16:02:49.950Z,54.71
2023-03-08T16:05:25.747Z,55.23
2023-03-08T16:07:59.401Z,55.72
2023-03-08T16:10:37.582Z,55.85
2023-03-08T16:13:09.662Z,55.70
2023-03-08T16:15:43.036Z,56.07
2023-03-08T16:18:14.722Z,56.44
2023-03-08T16:20:46.634Z,56.67
2023-03-08T16:23:18.339Z,56.91
2023-03-08T16:26:13.584Z,56.72
2023-03-08T16:28:48.259Z,57.09
2023-03-08T16:31:23.100Z,57.28
2023-03-08T16:33:54.744Z,57.70
2023-03-08T16:36:26.430Z,57.52
2023-03-08T16:38:58.102Z,58.06
2023-03-08T16:41:30.279Z,57.96
2023-03-08T16:44:02.117Z,57.67
2023-03-08T16:46:34.374Z,57.89
2023-03-08T16:49:06.063Z,58.53
2023-03-08T16:51:38.487Z,58.99
2023-03-08T16:54:11.127Z,58.87
2023-03-08T16:56:43.623Z,59.33
2023-03-08T16:59:16.588Z,59.24
2023-03-08T17:01:49.932Z,59.41
2023-03-08T17:04:22.825Z,59.60
2023-03-08T17:06:54.501Z,59.57
2023-03-08T17:09:26.183Z,59.99
2023-03-08T17:11:57.826Z,60.05
2023-03-08T17:14:29.521Z,60.26
2023-03-08T17:17:01.258Z,60.71
2023-03-08T17:19:32.911Z,61.38
2023-03-08T17:22:04.624Z,61.63
2023-03-08T17:24:36.406Z,62.06
2023-03-08T17:27:08.366Z,62.31
2023-03-08T17:29:40.294Z,62.24
2023-03-08T17:32:12.028Z,62.04
2023-03-08T17:34:43.700Z,62.37
2023-03-08T17:37:15.842Z,62.52
2023-03-08T17:39:47.812Z,62.81
2023-03-08T17:42:19.510Z,62.90
2023-03-08T17:44:51.291Z,62.96
2023-03-08T17:47:23.064Z,62.87
2023-03-08T17:49:54.888Z,63.60
2023-03-08T17:52:26.866Z,63.36
2023-03-08T17:54:58.681Z,63.44
2023-03-08T17:57:30.668Z,63.57
2023-03-08T18:00:02.574Z,63.86
2023-03-08T18:02:36.146Z,64.04
2023-03-08T18:05:09.865Z,64.29
2023-03-08T18:07:42.208Z,64.15
2023-03-08T18:10:14.853Z,64.53
2023-03-08T18:12:47.295Z,64.53
2023-03-08T18:15:19.090Z,64.90
2023-03-08T18:17:50.924Z,65.13
2023-03-08T18:20:24.751Z,65.65
2023-03-08T18:22:56.459Z,65.98
2023-03-08T18:25:28.361Z,66.17
2023-03-08T18:28:00.203Z,66.59
2023-03-08T18:30:31.994Z,66.72
2023-03-08T18:33:05.254Z,67.00
2023-03-08T18:35:36.994Z,67.36
2023-03-08T18:38:08.715Z,67.64
2023-03-08T18:40:40.378Z,67.82
2023-03-08T18:43:12.018Z,67.94
2023-03-08T18:45:43.970Z,68.34
2023-03-08T18:48:15.752Z,68.89
2023-03-08T18:50:47.506Z,68.98
2023-03-08T18:53:19.635Z,69.35
2023-03-08T18:55:59.129Z,69.56
2023-03-08T18:58:31.315Z,70.16
2023-03-08T19:01:03.337Z,70.41
2023-03-08T19:03:35.092Z,70.61
2023-03-08T19:06:07.805Z,71.03
2023-03-08T19:08:39.498Z,71.49
2023-03-08T19:11:15.565Z,71.62
2023-03-08T19:13:47.683Z,71.77
2023-03-08T19:16:23.739Z,71.84
2023-03-08T19:18:57.591Z,72.03
2023-03-08T19:21:30.855Z,72.44
2023-03-08T19:24:02.844Z,72.26
2023-03-08T19:26:38.645Z,72.60
2023-03-08T19:29:12.938Z,72.44
2023-03-08T19:31:46.643Z,72.92
2023-03-08T19:34:18.890Z,73.00
2023-03-08T19:36:51.413Z,73.08
2023-03-08T19:39:25.546Z,73.10
2023-03-08T19:41:58.784Z,73.25
2023-03-08T19:44:31.449Z,73.36
2023-03-08T19:47:04.567Z,73.37
2023-03-08T19:49:37.881Z,73.41
2023-03-08T19:52:11.103Z,73.52
2023-03-08T19:54:43.154Z,73.62
2023-03-08T19:57:14.783Z,73.75
2023-03-08T19:59:46.610Z,73.61
2023-03-08T20:02:18.447Z,73.83
2023-03-08T20:04:50.527Z,73.73
2023-03-08T20:07:22.321Z,74.02
2023-03-08T20:09:57.586Z,73.97
2023-03-08T20:12:32.692Z,73.79
2023-03-08T20:15:06.528Z,74.22
2023-03-08T20:17:38.784Z,74.29
2023-03-08T20:20:13.042Z,74.09
2023-03-08T20:22:45.106Z,74.24
2023-03-08T20:25:20.036Z,74.61
2023-03-08T20:27:51.961Z,74.37
2023-03-08T20:30:23.727Z,74.55
2023-03-08T20:32:55.479Z,74.20
2023-03-08T20:35:27.641Z,74.29
2023-03-08T20:37:59.392Z,74.36
2023-03-08T20:40:31.141Z,74.80
2023-03-08T20:43:02.884Z,74.89
2023-03-08T20:45:34.620Z,74.85
2023-03-08T20:48:06.782Z,74.65
2023-03-08T20:50:38.499Z,74.76
2023-03-08T20:53:10.153Z,75.21
2023-03-08T20:55:42.246Z,75.20
2023-03-08T20:58:13.964Z,75.18
2023-03-08T21:00:45.715Z,75.36
2023-03-08T21:03:17.517Z,75.30
2023-03-08T21:05:49.982Z,75.40
2023-03-08T21:08:24.231Z,75.53
2023-03-08T21:10:59.720Z,75.19
2023-03-08T21:13:31.560Z,75.39
2023-03-08T21:16:08.478Z,75.41
2023-03-08T21:18:45.681Z,75.40
2023-03-08T21:21:24.771Z,75.53
2023-03-08T21:23:57.688Z,75.41
2023-03-08T21:26:31.107Z,75.51
2023-03-08T21:29:04.731Z,75.67
2023-03-08T21:31:38.510Z,75.50
2023-03-08T21:34:11.850Z,75.75
2023-03-08T21:36:44.422Z,75.37
2023-03-08T21:39:16.588Z,75.68
2023-03-08T21:41:50.524Z,75.66
2023-03-08T21:44:22.662Z,75.77
2023-03-08T21:46:55.350Z,76.01
2023-03-08T21:49:30.365Z,76.22
2023-03-08T21:52:02.396Z,76.27
2023-03-08T21:54:34.187Z,76.14
2023-03-08T21:57:06.070Z,76.34
2023-03-08T21:59:37.876Z,76.10
2023-03-08T22:02:12.206Z,76.06
2023-03-08T22:04:44.121Z,76.04
2023-03-08T22:07:15.842Z,76.15
2023-03-08T22:09:47.668Z,76.28
2023-03-08T22:12:19.959Z,76.18
2023-03-08T22:14:51.878Z,76.21
2023-03-08T22:17:23.790Z,76.46
2023-03-08T22:19:55.537Z,76.69
2023-03-08T22:22:27.281Z,76.65
2023-03-08T22:24:58.931Z,76.77
2023-03-08T22:27:30.718Z,76.81
2023-03-08T22:30:02.459Z,76.79
2023-03-08T22:32:34.282Z,76.94
2023-03-08T22:35:06.652Z,77.14
2023-03-08T22:37:38.798Z,77.10
2023-03-08T22:40:13.468Z,77.43
2023-03-08T22:42:45.211Z,77.10
2023-03-08T22:45:17.510Z,77.17
2023-03-08T22:47:49.469Z,77.09
2023-03-08T22:50:21.489Z,77.30
2023-03-08T22:52:53.227Z,77.23
2023-03-08T22:55:25.284Z,77.13
2023-03-08T22:57:57.061Z,77.15
2023-03-08T23:00:29.267Z,77.15
2023-03-08T23:03:01.114Z,77.09
2023-03-08T23:05:33.108Z,77.26
2023-03-08T23:08:06.322Z,77.25
2023-03-08T23:10:38.240Z,77.56
2023-03-08T23:13:14.384Z,77.52
2023-03-08T23:15:50.446Z,77.61
2023-03-08T23:18:22.657Z,77.48
2023-03-08T23:20:54.572Z,77.50
2023-03-08T23:23:26.625Z,77.69
2023-03-08T23:25:58.776Z,77.36
2023-03-08T23:28:35.387Z,77.77
2023-03-08T23:31:11.299Z,77.38
2023-03-08T23:33:43.820Z,77.43
2023-03-08T23:36:17.879Z,77.51
2023-03-08T23:38:50.235Z,77.54
2023-03-08T23:41:28.658Z,77.47
2023-03-08T23:44:02.163Z,77.55
2023-03-08T23:46:33.914Z,77.57
2023-03-08T23:49:05.848Z,77.66
2023-03-08T23:51:37.572Z,77.95
2023-03-08T23:54:10.563Z,78.04
2023-03-08T23:56:43.025Z,78.03
2023-03-08T23:59:18.223Z,78.02
